Time;durP1;ratioP1;P1;durP2;ratioP2;P2;SDS_P1;SDS_P2;PMS_P1;PMS_P2;Temp;Humidity;BMP_temperature;BMP_pressure;BME280_temperature;BME280_humidity;BME280_pressure;Samples;Min_cycle;Max_cycle;Signal;HPM_P1;HPM_P2
2022/03/28 00:01:04;;;;;;;18.50;11.55;;;6.20;99.90;;;;;;4989684;28;20065;-70
2022/03/28 00:03:30;;;;;;;17.63;10.07;;;6.20;99.90;;;;;;5015777;28;20194;-70
2022/03/28 00:05:56;;;;;;;15.40;9.75;;;6.20;99.90;;;;;;4988779;28;20129;-71
2022/03/28 00:08:22;;;;;;;17.30;9.20;;;6.20;99.90;;;;;;5008306;28;20548;-71
2022/03/28 00:10:48;;;;;;;15.75;9.43;;;6.20;99.90;;;;;;4994306;28;20042;-70
2022/03/28 00:13:13;;;;;;;13.77;8.85;;;6.20;99.90;;;;;;5010577;28;20405;-71
2022/03/28 00:15:39;;;;;;;18.80;10.18;;;6.10;99.90;;;;;;4998638;28;20088;-70
2022/03/28 00:18:07;;;;;;;19.75;10.60;;;6.10;99.90;;;;;;4992852;28;20095;-70
2022/03/28 00:20:33;;;;;;;19.58;10.23;;;6.10;99.90;;;;;;4992563;28;20038;-71
2022/03/28 00:22:58;;;;;;;16.77;9.73;;;6.10;99.90;;;;;;4988407;28;20425;-70
2022/03/28 00:25:24;;;;;;;16.80;9.75;;;6.00;99.90;;;;;;4989408;28;20490;-71
2022/03/28 00:27:49;;;;;;;15.52;9.95;;;6.00;99.90;;;;;;5006098;28;20050;-70
2022/03/28 00:30:15;;;;;;;17.65;9.95;;;6.00;99.90;;;;;;4993591;28;20077;-70
2022/03/28 00:32:41;;;;;;;14.05;9.00;;;6.00;99.90;;;;;;5008406;28;20162;-70
2022/03/28 00:35:07;;;;;;;17.92;9.10;;;6.00;99.90;;;;;;5005388;28;20042;-71
2022/03/28 00:37:32;;;;;;;14.73;8.88;;;6.00;99.90;;;;;;4991770;28;20057;-70
2022/03/28 00:39:58;;;;;;;19.88;10.63;;;6.00;99.90;;;;;;5001814;28;20041;-70
2022/03/28 00:42:24;;;;;;;15.00;9.95;;;6.00;99.90;;;;;;4991182;28;20038;-71
2022/03/28 00:44:49;;;;;;;21.55;10.13;;;6.00;99.90;;;;;;4991272;28;20046;-70
2022/03/28 00:47:15;;;;;;;18.17;10.60;;;6.00;99.90;;;;;;5004820;28;20053;-70
2022/03/28 00:49:40;;;;;;;16.83;10.43;;;6.10;99.90;;;;;;5008240;28;20103;-70
2022/03/28 00:52:07;;;;;;;16.42;10.77;;;6.00;99.90;;;;;;4989845;28;20682;-71
2022/03/28 00:54:33;;;;;;;20.00;11.20;;;6.00;99.90;;;;;;4989857;28;20050;-71
2022/03/28 00:56:58;;;;;;;21.80;11.27;;;6.00;99.90;;;;;;4988010;28;20044;-70
2022/03/28 00:59:24;;;;;;;17.92;11.00;;;6.10;99.90;;;;;;5005253;28;20034;-71
2022/03/28 01:01:49;;;;;;;19.77;11.38;;;6.00;99.90;;;;;;5007175;28;20045;-71
2022/03/28 01:04:15;;;;;;;18.60;11.57;;;6.00;99.90;;;;;;4994233;28;20049;-71
2022/03/28 01:06:41;;;;;;;18.95;11.90;;;6.00;99.90;;;;;;5006587;28;20045;-71
2022/03/28 01:09:07;;;;;;;21.73;12.85;;;6.00;99.90;;;;;;4996748;28;20057;-71
2022/03/28 01:11:34;;;;;;;22.15;12.45;;;6.00;99.90;;;;;;5000421;28;20075;-70
2022/03/28 01:14:00;;;;;;;20.52;12.88;;;6.00;99.90;;;;;;5009029;28;20037;-70
2022/03/28 01:16:30;;;;;;;23.35;13.05;;;6.00;99.90;;;;;;5015941;28;20091;-71
2022/03/28 01:18:55;;;;;;;21.42;13.30;;;6.00;99.90;;;;;;4993178;28;20056;-70
2022/03/28 01:21:21;;;;;;;23.33;13.60;;;6.10;99.90;;;;;;4994140;28;20053;-70
2022/03/28 01:23:47;;;;;;;23.85;13.50;;;6.10;99.90;;;;;;4991900;28;20069;-70
2022/03/28 01:26:14;;;;;;;26.75;11.52;;;6.10;99.90;;;;;;4991678;28;20414;-70
2022/03/28 01:28:40;;;;;;;19.63;11.27;;;6.20;99.90;;;;;;4992636;28;20064;-71
2022/03/28 01:31:07;;;;;;;18.77;11.30;;;6.10;99.90;;;;;;4992242;28;20042;-70
2022/03/28 01:33:37;;;;;;;19.95;11.10;;;6.00;99.90;;;;;;5003988;28;20041;-70
2022/03/28 01:36:04;;;;;;;17.10;10.32;;;6.10;99.90;;;;;;5012068;28;20489;-69
2022/03/28 01:38:30;;;;;;;18.10;10.18;;;6.00;99.90;;;;;;4995479;28;20144;-69
2022/03/28 01:40:56;;;;;;;13.80;9.50;;;6.10;99.90;;;;;;4986546;28;20116;-69
2022/03/28 01:43:22;;;;;;;15.52;9.02;;;6.10;99.90;;;;;;4991199;28;20127;-71
2022/03/28 01:45:48;;;;;;;19.58;9.63;;;6.00;99.90;;;;;;4989983;28;20054;-70
2022/03/28 01:48:14;;;;;;;17.83;9.10;;;6.00;99.90;;;;;;5004943;28;20046;-71
2022/03/28 01:50:39;;;;;;;19.08;9.82;;;6.00;99.90;;;;;;5013617;28;20049;-70
2022/03/28 01:53:06;;;;;;;15.77;9.80;;;6.00;99.90;;;;;;4991463;28;20449;-71
2022/03/28 01:55:32;;;;;;;15.48;9.25;;;5.90;99.90;;;;;;5007933;28;20054;-70
2022/03/28 01:57:58;;;;;;;19.95;9.02;;;6.00;99.90;;;;;;4990001;28;20129;-70
2022/03/28 02:00:26;;;;;;;17.63;9.18;;;5.90;99.90;;;;;;4991505;28;20186;-70
2022/03/28 02:02:52;;;;;;;13.55;8.35;;;6.00;99.90;;;;;;4982554;28;20034;-70
2022/03/28 02:05:18;;;;;;;17.55;9.50;;;6.00;99.90;;;;;;4997257;28;20646;-70
2022/03/28 02:07:48;;;;;;;15.95;9.20;;;6.00;99.90;;;;;;4995297;28;20497;-70
2022/03/28 02:10:18;;;;;;;23.35;9.63;;;6.00;99.90;;;;;;4986287;28;20073;-70
2022/03/28 02:12:44;;;;;;;19.33;10.23;;;5.90;99.90;;;;;;5016243;28;20093;-69
2022/03/28 02:15:10;;;;;;;22.45;9.98;;;5.90;99.90;;;;;;5015570;28;20092;-71
2022/03/28 02:17:37;;;;;;;30.15;10.82;;;5.90;99.90;;;;;;4993053;28;20050;-70
2022/03/28 02:20:05;;;;;;;19.58;9.48;;;5.90;99.90;;;;;;4997783;28;20066;-70
2022/03/28 02:22:32;;;;;;;14.57;8.18;;;5.90;99.90;;;;;;4997135;28;20300;-70
2022/03/28 02:24:57;;;;;;;17.38;9.65;;;5.90;99.90;;;;;;5011726;28;20044;-70
2022/03/28 02:27:23;;;;;;;15.57;8.23;;;5.90;99.90;;;;;;5010442;28;20460;-70
2022/03/28 02:29:49;;;;;;;23.38;8.50;;;5.90;99.90;;;;;;4992431;28;20045;-69
2022/03/28 02:32:14;;;;;;;11.73;7.18;;;5.90;99.90;;;;;;4992488;28;20045;-70
2022/03/28 02:34:40;;;;;;;19.98;7.15;;;5.90;99.90;;;;;;5008493;28;20081;-70
2022/03/28 02:37:06;;;;;;;16.45;7.18;;;5.90;99.90;;;;;;4993974;28;20041;-70
2022/03/28 02:39:31;;;;;;;30.95;8.13;;;5.90;99.90;;;;;;5011473;28;20124;-70
2022/03/28 02:41:57;;;;;;;22.10;7.35;;;5.90;99.90;;;;;;4988839;28;20128;-71
2022/03/28 02:44:23;;;;;;;20.00;7.50;;;5.90;99.90;;;;;;5011177;28;20037;-69
2022/03/28 02:46:51;;;;;;;10.70;6.88;;;5.90;99.90;;;;;;4995516;28;20513;-70
2022/03/28 02:49:19;;;;;;;11.57;6.93;;;5.80;99.90;;;;;;5006301;28;20419;-71
2022/03/28 02:51:45;;;;;;;21.10;6.63;;;5.90;99.90;;;;;;4998823;28;20033;-70
2022/03/28 02:54:11;;;;;;;15.70;7.45;;;5.80;99.90;;;;;;4993241;28;20042;-71
2022/03/28 02:56:37;;;;;;;12.18;7.03;;;5.80;99.90;;;;;;5015420;28;20551;-71
2022/03/28 02:59:03;;;;;;;15.80;6.25;;;5.90;99.90;;;;;;5009606;28;20331;-70
2022/03/28 03:01:29;;;;;;;13.60;6.90;;;5.80;99.90;;;;;;5011984;28;20202;-70
2022/03/28 03:03:54;;;;;;;12.18;6.70;;;5.80;99.90;;;;;;4995817;28;20049;-70
2022/03/28 03:06:20;;;;;;;11.98;6.60;;;5.80;99.90;;;;;;4990500;28;20069;-70
2022/03/28 03:08:45;;;;;;;10.52;5.88;;;5.80;99.90;;;;;;5015055;28;20092;-70
2022/03/28 03:11:11;;;;;;;17.35;6.85;;;5.80;99.90;;;;;;4991736;28;20041;-70
2022/03/28 03:13:37;;;;;;;22.45;6.50;;;5.90;99.90;;;;;;4999202;28;20076;-70
2022/03/28 03:16:04;;;;;;;13.32;5.88;;;5.80;99.90;;;;;;5010828;28;20100;-70
2022/03/28 03:18:30;;;;;;;33.78;6.47;;;5.80;99.90;;;;;;5010601;28;20125;-70
2022/03/28 03:20:56;;;;;;;17.92;5.85;;;5.80;99.90;;;;;;5014998;28;20128;-70
2022/03/28 03:23:22;;;;;;;28.30;5.95;;;5.80;99.90;;;;;;4993314;28;20542;-70
2022/03/28 03:25:49;;;;;;;13.20;6.28;;;5.70;99.90;;;;;;5001116;28;20053;-70
2022/03/28 03:28:15;;;;;;;40.30;6.63;;;5.80;99.90;;;;;;4990935;28;20124;-70
2022/03/28 03:30:41;;;;;;;41.70;6.55;;;5.70;99.90;;;;;;4990635;28;20116;-70
2022/03/28 03:33:07;;;;;;;21.08;6.00;;;5.70;99.90;;;;;;5001409;28;20049;-70
2022/03/28 03:35:33;;;;;;;28.52;5.60;;;5.80;99.90;;;;;;4996192;28;20402;-70
2022/03/28 03:37:59;;;;;;;21.15;5.55;;;5.80;99.90;;;;;;4998752;28;20117;-70
2022/03/28 03:40:25;;;;;;;20.45;6.07;;;5.80;99.90;;;;;;5015456;28;20042;-70
2022/03/28 03:42:51;;;;;;;20.77;6.55;;;5.70;99.90;;;;;;5008742;28;20096;-70
2022/03/28 03:45:16;;;;;;;16.70;6.30;;;5.80;99.90;;;;;;4994644;28;20048;-70
2022/03/28 03:47:42;;;;;;;14.00;5.70;;;5.70;99.90;;;;;;4997130;28;20446;-70
2022/03/28 03:50:08;;;;;;;9.40;4.90;;;5.80;99.90;;;;;;5013205;28;20070;-70
2022/03/28 03:52:34;;;;;;;9.65;4.35;;;5.70;99.90;;;;;;4991175;28;20062;-69
2022/03/28 03:55:00;;;;;;;13.48;5.22;;;5.70;99.90;;;;;;5016724;28;20080;-70
2022/03/28 03:57:26;;;;;;;14.30;4.90;;;5.70;99.90;;;;;;4998585;28;20137;-70
2022/03/28 03:59:52;;;;;;;30.85;5.68;;;5.70;99.90;;;;;;5002477;28;20041;-70
2022/03/28 04:02:18;;;;;;;10.07;4.57;;;5.80;99.90;;;;;;4993327;28;20053;-70
2022/03/28 04:04:43;;;;;;;11.10;4.82;;;5.70;99.90;;;;;;4997937;28;20042;-70
2022/03/28 04:07:09;;;;;;;10.93;4.43;;;5.70;99.90;;;;;;4991562;28;20037;-70
2022/03/28 04:09:35;;;;;;;11.38;4.75;;;5.70;99.90;;;;;;4990052;28;20042;-71
2022/03/28 04:12:01;;;;;;;13.93;4.97;;;5.60;99.90;;;;;;5012127;28;20401;-71
2022/03/28 04:14:27;;;;;;;12.07;4.50;;;5.60;99.90;;;;;;5012575;28;20095;-69
2022/03/28 04:16:52;;;;;;;14.85;4.70;;;5.70;99.90;;;;;;4997444;28;20523;-69
2022/03/28 04:19:18;;;;;;;15.02;5.30;;;5.60;99.90;;;;;;4992662;28;20052;-70
2022/03/28 04:21:43;;;;;;;11.70;5.20;;;5.60;99.90;;;;;;4994842;28;20096;-70
2022/03/28 04:24:09;;;;;;;8.38;4.38;;;5.70;99.90;;;;;;4994995;28;20046;-71
2022/03/28 04:26:35;;;;;;;11.50;5.95;;;5.60;99.90;;;;;;4990986;28;20081;-69
2022/03/28 04:29:00;;;;;;;9.80;5.30;;;5.60;99.90;;;;;;4997308;28;20432;-72
2022/03/28 04:31:26;;;;;;;10.13;5.97;;;5.70;99.90;;;;;;5008412;28;20080;-70
2022/03/28 04:33:52;;;;;;;13.68;7.18;;;5.60;99.90;;;;;;4994210;28;20065;-69
2022/03/28 04:36:17;;;;;;;12.98;7.53;;;5.60;99.90;;;;;;4990220;28;20478;-69
2022/03/28 04:38:43;;;;;;;12.77;8.27;;;5.60;99.90;;;;;;4993286;28;20046;-69
2022/03/28 04:41:09;;;;;;;14.93;8.07;;;5.60;99.90;;;;;;4985062;28;20042;-70
2022/03/28 04:43:34;;;;;;;13.75;7.60;;;5.60;99.90;;;;;;5005957;28;20060;-69
2022/03/28 04:46:00;;;;;;;18.77;8.70;;;5.60;99.90;;;;;;4994655;28;20049;-70
2022/03/28 04:48:26;;;;;;;14.73;8.00;;;5.60;99.90;;;;;;4992612;28;20046;-70
2022/03/28 04:50:51;;;;;;;14.35;8.02;;;5.50;99.90;;;;;;5006325;28;20042;-69
2022/03/28 04:53:17;;;;;;;15.98;7.50;;;5.50;99.90;;;;;;4998595;28;20060;-70
2022/03/28 04:55:43;;;;;;;13.82;7.57;;;5.50;99.90;;;;;;5013706;28;20045;-70
2022/03/28 04:58:09;;;;;;;15.38;7.82;;;5.40;99.90;;;;;;5011009;28;20124;-71
2022/03/28 05:00:35;;;;;;;14.85;8.85;;;5.40;99.90;;;;;;5014503;28;20149;-70
2022/03/28 05:03:00;;;;;;;15.15;8.52;;;5.40;99.90;;;;;;5010934;28;20042;-70
2022/03/28 05:05:26;;;;;;;16.95;8.85;;;5.40;99.90;;;;;;4992355;28;20046;-71
2022/03/28 05:07:52;;;;;;;17.10;8.70;;;5.40;99.90;;;;;;4968294;28;20057;-71
2022/03/28 05:10:17;;;;;;;12.30;7.50;;;5.50;99.90;;;;;;4982746;28;20052;-70
2022/03/28 05:12:43;;;;;;;12.13;7.78;;;5.40;99.90;;;;;;4992457;28;20042;-69
2022/03/28 05:15:09;;;;;;;13.82;7.68;;;5.40;99.90;;;;;;4986649;28;20113;-70
2022/03/28 05:17:35;;;;;;;15.13;8.00;;;5.40;99.90;;;;;;4987958;28;20073;-69
2022/03/28 05:20:01;;;;;;;14.73;7.80;;;5.40;99.90;;;;;;4967460;28;20478;-70
2022/03/28 05:22:26;;;;;;;10.95;8.07;;;5.40;99.90;;;;;;4991775;28;20038;-69
2022/03/28 05:24:54;;;;;;;15.65;8.95;;;5.40;99.90;;;;;;4968382;28;20085;-70
2022/03/28 05:27:20;;;;;;;15.13;8.27;;;5.50;99.90;;;;;;4966439;28;20053;-71
2022/03/28 05:29:47;;;;;;;12.40;8.05;;;5.50;99.90;;;;;;4962153;28;20104;-71
2022/03/28 05:32:13;;;;;;;13.27;8.25;;;5.50;99.90;;;;;;4979901;28;20407;-71
2022/03/28 05:34:39;;;;;;;13.00;8.35;;;5.50;99.90;;;;;;4970639;28;20141;-72
2022/03/28 05:37:15;;;;;;;12.27;7.88;;;5.50;99.90;;;;;;4984556;28;20046;-69
2022/03/28 05:39:43;;;;;;;13.23;8.43;;;5.40;99.90;;;;;;4973253;28;20133;-70
2022/03/28 05:42:09;;;;;;;17.38;8.90;;;5.40;99.90;;;;;;4972397;28;20061;-70
2022/03/28 05:44:37;;;;;;;12.18;8.60;;;5.50;99.90;;;;;;4968569;28;21470;-71
2022/03/28 05:47:03;;;;;;;13.82;8.70;;;5.50;99.90;;;;;;4991770;28;20049;-72
2022/03/28 05:49:29;;;;;;;16.85;10.13;;;5.50;99.90;;;;;;4973330;28;20046;-71
2022/03/28 05:51:55;;;;;;;13.93;9.68;;;5.50;99.90;;;;;;4966039;28;20054;-71
2022/03/28 05:54:21;;;;;;;14.50;8.98;;;5.50;99.90;;;;;;4969841;28;20064;-73
2022/03/28 05:56:48;;;;;;;15.18;9.43;;;5.50;99.90;;;;;;4983524;28;20542;-71
2022/03/28 05:59:14;;;;;;;14.52;10.25;;;5.50;99.90;;;;;;4961526;28;20035;-72
2022/03/28 06:01:39;;;;;;;17.00;9.43;;;5.50;99.90;;;;;;4968360;28;20054;-72
2022/03/28 06:04:05;;;;;;;14.70;9.65;;;5.50;99.90;;;;;;4987710;28;20042;-72
2022/03/28 06:06:32;;;;;;;16.38;10.30;;;5.50;99.90;;;;;;4999203;28;20045;-71
2022/03/28 06:08:58;;;;;;;17.90;10.13;;;5.50;99.90;;;;;;4985147;28;20049;-70
2022/03/28 06:11:24;;;;;;;17.05;10.45;;;5.50;99.90;;;;;;4990115;28;20531;-71
2022/03/28 06:13:50;;;;;;;15.65;9.45;;;5.60;99.90;;;;;;4990322;28;20587;-71
2022/03/28 06:16:16;;;;;;;16.83;10.43;;;5.60;99.90;;;;;;4990107;28;20045;-71
2022/03/28 06:18:41;;;;;;;12.95;8.65;;;5.60;99.90;;;;;;4992786;28;20095;-72
2022/03/28 06:21:08;;;;;;;14.55;9.98;;;5.50;99.90;;;;;;4991147;28;20091;-71
2022/03/28 06:23:36;;;;;;;16.52;9.93;;;5.50;99.90;;;;;;4985632;28;20100;-71
2022/03/28 06:26:03;;;;;;;14.57;9.70;;;5.60;99.90;;;;;;4992016;28;20073;-71
2022/03/28 06:28:29;;;;;;;18.23;10.63;;;5.50;99.90;;;;;;4987086;28;20056;-72
2022/03/28 06:30:55;;;;;;;12.35;9.02;;;5.60;99.90;;;;;;5006724;28;20050;-72
2022/03/28 06:33:21;;;;;;;22.40;10.15;;;5.60;99.90;;;;;;4995391;28;20045;-72
2022/03/28 06:35:47;;;;;;;14.95;10.00;;;5.60;99.90;;;;;;5008691;28;20049;-72
2022/03/28 06:38:13;;;;;;;16.20;10.25;;;5.50;99.90;;;;;;4992767;28;20042;-72
2022/03/28 06:40:38;;;;;;;14.20;9.13;;;5.50;99.90;;;;;;5004806;28;20062;-71
2022/03/28 06:43:05;;;;;;;16.33;10.20;;;5.60;99.90;;;;;;5004877;28;20034;-72
2022/03/28 06:45:31;;;;;;;16.60;10.70;;;5.60;99.90;;;;;;5008478;28;20042;-72
2022/03/28 06:47:57;;;;;;;16.65;10.77;;;5.60;99.90;;;;;;4989070;28;20038;-71
2022/03/28 06:50:25;;;;;;;19.10;11.13;;;5.60;99.90;;;;;;5006170;28;20034;-72
2022/03/28 06:52:52;;;;;;;17.52;10.00;;;5.60;99.90;;;;;;5004006;28;20892;-72
2022/03/28 06:55:18;;;;;;;19.08;10.07;;;5.60;99.90;;;;;;4992978;28;20133;-71
2022/03/28 06:57:43;;;;;;;16.25;9.50;;;5.60;99.90;;;;;;5007130;28;20141;-72
2022/03/28 07:00:11;;;;;;;19.02;9.43;;;5.60;99.90;;;;;;5002029;28;20054;-71
2022/03/28 07:02:37;;;;;;;17.73;10.07;;;5.60;99.90;;;;;;4989244;28;20042;-72
2022/03/28 07:05:07;;;;;;;22.25;9.68;;;5.70;99.90;;;;;;4993064;28;20038;-71
2022/03/28 07:07:43;;;;;;;17.35;9.27;;;5.60;99.90;;;;;;4979798;28;20042;-71
2022/03/28 07:10:11;;;;;;;19.17;9.80;;;5.70;99.90;;;;;;5009863;28;20056;-71
2022/03/28 07:12:37;;;;;;;17.58;8.07;;;5.60;99.90;;;;;;4988119;28;20397;-71
2022/03/28 07:15:03;;;;;;;20.65;8.57;;;5.70;99.90;;;;;;4984126;28;20080;-71
2022/03/28 07:17:29;;;;;;;23.58;8.57;;;5.70;99.90;;;;;;5008380;28;20553;-71
2022/03/28 07:19:55;;;;;;;18.73;8.07;;;5.70;99.90;;;;;;4994974;28;20129;-71
2022/03/28 07:22:20;;;;;;;13.73;7.32;;;5.70;99.90;;;;;;5001815;28;20060;-71
2022/03/28 07:24:46;;;;;;;12.05;6.40;;;5.60;99.90;;;;;;4987175;28;20439;-72
2022/03/28 07:27:11;;;;;;;17.67;6.78;;;5.70;99.90;;;;;;5002131;28;20092;-72
2022/03/28 07:29:38;;;;;;;11.52;5.93;;;5.60;99.90;;;;;;4980611;28;20045;-72
2022/03/28 07:32:04;;;;;;;9.95;4.93;;;5.70;99.90;;;;;;4982908;28;20187;-72
2022/03/28 07:34:30;;;;;;;7.78;4.40;;;5.70;99.90;;;;;;5007183;28;20113;-66
2022/03/28 07:36:57;;;;;;;7.45;3.92;;;5.80;99.90;;;;;;4974839;28;20549;-66
2022/03/28 07:39:23;;;;;;;7.55;3.95;;;5.80;99.90;;;;;;4994371;28;20113;-66
2022/03/28 07:41:49;;;;;;;7.65;4.32;;;5.80;99.90;;;;;;4996340;28;20046;-66
2022/03/28 07:44:15;;;;;;;7.13;3.95;;;5.80;99.90;;;;;;5003442;28;20050;-66
2022/03/28 07:46:41;;;;;;;7.53;4.07;;;5.80;99.90;;;;;;4986240;28;20497;-67
2022/03/28 07:49:07;;;;;;;8.95;3.97;;;5.80;99.90;;;;;;4976038;28;20512;-67
2022/03/28 07:51:33;;;;;;;7.35;4.10;;;5.80;99.90;;;;;;4982504;28;20047;-67
2022/03/28 07:53:59;;;;;;;8.73;4.18;;;5.90;99.90;;;;;;4975677;28;20057;-66
2022/03/28 07:56:25;;;;;;;7.13;3.47;;;6.00;99.90;;;;;;4993948;28;20132;-67
2022/03/28 07:58:51;;;;;;;7.47;3.90;;;6.00;99.90;;;;;;4994022;28;20429;-68
2022/03/28 08:01:17;;;;;;;6.53;3.75;;;6.00;99.90;;;;;;5001840;28;20045;-67
2022/03/28 08:03:42;;;;;;;8.80;4.65;;;6.10;99.90;;;;;;4982946;28;20143;-67
2022/03/28 08:06:08;;;;;;;7.93;3.83;;;6.10;99.90;;;;;;4998063;28;20592;-67
2022/03/28 08:08:35;;;;;;;7.95;4.45;;;6.10;99.90;;;;;;4979016;28;20034;-67
2022/03/28 08:11:01;;;;;;;6.80;3.63;;;6.10;99.90;;;;;;4984536;28;20387;-68
2022/03/28 08:13:27;;;;;;;6.35;3.80;;;6.20;99.90;;;;;;4985869;28;20041;-67
2022/03/28 08:15:53;;;;;;;6.35;3.83;;;6.20;99.90;;;;;;4978677;28;20053;-66
2022/03/28 08:18:19;;;;;;;7.03;3.97;;;6.30;99.90;;;;;;4979567;28;20049;-67
2022/03/28 08:20:53;;;;;;;8.23;4.28;;;6.30;99.90;;;;;;5079340;27;20132;-66
2022/03/28 08:23:20;;;;;;;7.50;4.13;;;6.40;99.90;;;;;;5071550;28;20048;-68
2022/03/28 08:25:47;;;;;;;7.00;4.30;;;6.40;99.90;;;;;;5067572;28;20141;-67
2022/03/28 08:28:13;;;;;;;9.00;4.40;;;6.40;99.90;;;;;;5070653;28;20048;-67
2022/03/28 08:30:39;;;;;;;7.30;4.32;;;6.40;99.90;;;;;;5077101;28;20063;-67
2022/03/28 08:33:05;;;;;;;8.30;4.07;;;6.50;99.90;;;;;;5078894;28;20546;-67
2022/03/28 08:35:30;;;;;;;6.07;3.83;;;6.50;99.90;;;;;;5074568;28;20418;-66
2022/03/28 08:37:56;;;;;;;7.38;4.60;;;6.50;99.90;;;;;;5077030;28;21199;-67
2022/03/28 08:40:22;;;;;;;7.57;4.22;;;6.60;99.90;;;;;;5077054;28;20040;-68
2022/03/28 08:42:49;;;;;;;7.95;4.68;;;6.60;99.90;;;;;;5078222;28;20048;-66
2022/03/28 08:45:16;;;;;;;9.75;5.13;;;6.60;99.90;;;;;;5076866;28;20040;-67
2022/03/28 08:47:47;;;;;;;9.00;5.43;;;6.60;99.90;;;;;;5079848;28;20052;-66
2022/03/28 08:50:14;;;;;;;9.13;5.10;;;6.60;99.90;;;;;;5079070;28;20523;-67
2022/03/28 08:52:41;;;;;;;9.63;4.88;;;6.70;99.90;;;;;;5076836;28;20127;-67
2022/03/28 08:55:11;;;;;;;7.93;4.63;;;6.70;99.90;;;;;;5072574;28;20064;-68
2022/03/28 08:57:37;;;;;;;9.20;5.45;;;6.70;99.90;;;;;;5068311;28;20063;-67
2022/03/28 09:00:06;;;;;;;10.40;5.53;;;6.70;99.90;;;;;;5074773;28;20029;-67
2022/03/28 09:02:42;;;;;;;7.40;4.55;;;6.70;99.90;;;;;;5073326;28;20044;-67
2022/03/28 09:05:12;;;;;;;8.00;4.93;;;6.70;99.90;;;;;;5075676;28;20047;-68
2022/03/28 09:07:38;;;;;;;8.45;5.20;;;6.70;99.90;;;;;;5076578;28;20101;-67
2022/03/28 09:10:12;;;;;;;9.30;5.80;;;6.70;99.90;;;;;;5071565;28;20526;-67
2022/03/28 09:12:56;;;;;;;10.90;5.95;;;6.80;99.90;;;;;;5072940;28;20504;-67
2022/03/28 09:15:21;;;;;;;12.43;7.07;;;6.80;99.90;;;;;;5072146;28;20464;-67
2022/03/28 09:17:56;;;;;;;13.30;7.90;;;6.80;99.90;;;;;;5072363;28;20113;-67
2022/03/28 09:20:23;;;;;;;12.63;7.72;;;6.80;99.90;;;;;;5073261;28;20059;-66
2022/03/28 09:22:51;;;;;;;13.40;7.88;;;6.90;99.90;;;;;;5069824;28;20127;-67
2022/03/28 09:25:18;;;;;;;13.23;8.48;;;6.90;99.90;;;;;;5084043;28;20068;-67
2022/03/28 09:27:47;;;;;;;11.98;7.68;;;7.00;99.90;;;;;;5050705;28;20041;-66
2022/03/28 09:30:16;;;;;;;12.25;7.40;;;7.10;99.90;;;;;;5056661;28;20041;-67
2022/03/28 09:32:45;;;;;;;12.80;7.93;;;7.20;99.90;;;;;;5040553;28;20079;-66
2022/03/28 09:35:20;;;;;;;12.90;8.55;;;7.20;99.90;;;;;;5043611;28;20055;-67
2022/03/28 09:37:56;;;;;;;13.95;9.13;;;7.20;99.90;;;;;;5043646;28;20068;-66
2022/03/28 09:40:28;;;;;;;11.77;8.95;;;7.30;99.90;;;;;;5055785;28;20103;-66
2022/03/28 09:42:54;;;;;;;13.45;8.23;;;7.40;99.90;;;;;;5044225;28;20354;-66
2022/03/28 09:45:27;;;;;;;11.88;8.73;;;7.40;99.90;;;;;;5054298;28;20626;-67
2022/03/28 09:47:59;;;;;;;14.80;9.98;;;7.50;99.90;;;;;;5054146;28;20111;-67
2022/03/28 09:50:38;;;;;;;14.00;9.53;;;7.50;99.90;;;;;;5059923;28;20052;-67
2022/03/28 09:53:25;;;;;;;17.98;11.25;;;7.50;99.90;;;;;;5037982;28;20047;-68
2022/03/28 09:55:53;;;;;;;13.65;9.98;;;7.50;99.90;;;;;;5063166;28;20059;-67
2022/03/28 09:58:49;;;;;;;17.02;10.88;;;7.50;99.90;;;;;;5058963;28;20064;-67
2022/03/28 10:01:25;;;;;;;15.48;10.70;;;7.40;99.90;;;;;;5066398;28;20040;-67
2022/03/28 10:04:08;;;;;;;15.00;10.23;;;7.50;99.90;;;;;;5057403;28;20163;-67
2022/03/28 10:06:35;;;;;;;16.58;10.90;;;7.50;99.90;;;;;;5041196;28;20341;-67
2022/03/28 10:09:02;;;;;;;17.85;11.40;;;7.50;99.90;;;;;;5059760;28;20500;-69
2022/03/28 10:11:29;;;;;;;19.80;11.55;;;7.60;99.90;;;;;;5058248;28;20044;-67
2022/03/28 10:13:56;;;;;;;16.17;11.57;;;7.70;99.90;;;;;;5061709;28;20051;-67
2022/03/28 10:16:22;;;;;;;16.73;11.43;;;7.80;99.90;;;;;;5059734;28;20036;-67
2022/03/28 10:18:50;;;;;;;17.10;11.93;;;7.70;99.90;;;;;;5058363;28;20483;-67
2022/03/28 10:21:37;;;;;;;17.10;11.32;;;7.80;99.90;;;;;;5037549;28;20132;-66
2022/03/28 10:24:17;;;;;;;16.30;11.77;;;7.80;99.90;;;;;;5059327;28;20037;-67
2022/03/28 10:26:47;;;;;;;14.05;11.02;;;7.90;99.90;;;;;;5041512;28;20127;-66
2022/03/28 10:29:17;;;;;;;16.10;11.93;;;7.90;99.90;;;;;;5035827;28;20544;-67
2022/03/28 10:32:03;;;;;;;15.63;10.95;;;8.00;99.90;;;;;;5036133;28;20408;-66
2022/03/28 10:35:00;;;;;;;17.27;11.85;;;8.10;99.90;;;;;;5044131;28;20056;-67
2022/03/28 10:37:30;;;;;;;14.20;11.38;;;8.00;99.90;;;;;;5034165;28;20040;-67
2022/03/28 10:40:21;;;;;;;17.02;11.70;;;8.10;99.90;;;;;;5038855;28;20468;-66
2022/03/28 10:43:10;;;;;;;14.43;11.68;;;8.20;99.90;;;;;;5030595;28;20041;-66
2022/03/28 10:45:45;;;;;;;15.68;11.20;;;8.30;99.90;;;;;;5027993;28;20099;-67
2022/03/28 10:48:12;;;;;;;18.60;11.27;;;8.40;99.90;;;;;;5025740;28;20398;-66
2022/03/28 10:50:54;;;;;;;15.80;11.52;;;8.50;99.90;;;;;;5032215;28;20041;-67
2022/03/28 10:53:39;;;;;;;15.80;11.05;;;8.70;99.90;;;;;;5036606;28;20543;-67
2022/03/28 10:56:13;;;;;;;15.00;10.90;;;8.70;99.90;;;;;;5040735;28;20056;-67
2022/03/28 10:58:44;;;;;;;15.38;12.00;;;8.70;99.90;;;;;;5035067;28;20303;-67
2022/03/28 11:01:13;;;;;;;14.32;11.80;;;8.80;99.90;;;;;;5028671;28;20048;-67
2022/03/28 11:03:53;;;;;;;15.93;11.35;;;8.90;99.90;;;;;;5038073;28;20041;-66
2022/03/28 11:06:49;;;;;;;14.38;10.75;;;9.00;99.90;;;;;;5039424;28;20367;-71
2022/03/28 11:09:34;;;;;;;17.15;10.43;;;9.10;99.90;;;;;;5036301;28;20400;-70
2022/03/28 11:12:04;;;;;;;17.70;11.05;;;9.10;99.90;;;;;;5033518;28;20055;-70
2022/03/28 11:14:40;;;;;;;16.38;11.38;;;9.00;99.90;;;;;;5034304;28;21034;-70
2022/03/28 11:17:15;;;;;;;15.38;11.10;;;9.00;99.90;;;;;;5037584;28;20045;-71
2022/03/28 11:19:58;;;;;;;13.50;10.85;;;9.00;99.90;;;;;;5047275;28;20419;-70
2022/03/28 11:22:52;;;;;;;15.95;11.55;;;9.00;99.90;;;;;;5056487;28;20055;-70
2022/03/28 11:25:28;;;;;;;14.60;11.48;;;9.00;99.90;;;;;;5058137;28;20098;-70
2022/03/28 11:28:21;;;;;;;16.17;11.43;;;9.10;99.90;;;;;;5075543;28;20431;-70
2022/03/28 11:31:03;;;;;;;14.85;10.95;;;9.10;99.90;;;;;;5056483;28;20052;-70
2022/03/28 11:33:39;;;;;;;17.58;12.25;;;9.20;99.90;;;;;;5053600;28;20056;-71
2022/03/28 11:36:11;;;;;;;16.48;12.13;;;9.20;99.90;;;;;;5057418;28;20041;-70
2022/03/28 11:38:45;;;;;;;16.33;11.38;;;9.20;99.90;;;;;;5057041;28;20049;-71
2022/03/28 11:41:12;;;;;;;16.00;11.70;;;9.30;99.90;;;;;;5055417;28;20687;-70
2022/03/28 11:43:49;;;;;;;17.45;12.38;;;9.40;99.90;;;;;;5059719;28;20044;-70
2022/03/28 11:46:24;;;;;;;19.95;12.50;;;9.50;99.90;;;;;;5055312;28;20182;-70
2022/03/28 11:49:03;;;;;;;16.67;11.63;;;9.70;99.90;;;;;;5057912;28;20115;-70
2022/03/28 11:51:30;;;;;;;16.48;11.20;;;9.80;99.90;;;;;;5056020;28;20166;-70
2022/03/28 11:54:00;;;;;;;15.50;11.20;;;9.90;99.90;;;;;;5059008;28;20037;-70
2022/03/28 11:56:29;;;;;;;16.20;12.38;;;9.90;99.90;;;;;;5055880;28;20187;-69
2022/03/28 11:59:06;;;;;;;15.13;11.77;;;9.90;99.90;;;;;;5057325;28;20704;-70
2022/03/28 12:01:33;;;;;;;16.83;13.57;;;9.80;99.90;;;;;;5056861;28;20549;-70
2022/03/28 12:04:00;;;;;;;16.15;11.75;;;9.90;99.90;;;;;;5058696;28;20056;-71
2022/03/28 12:06:39;;;;;;;16.83;12.35;;;10.00;99.90;;;;;;5053267;28;20048;-70
2022/03/28 12:09:07;;;;;;;13.48;11.60;;;10.10;99.90;;;;;;5053565;28;20110;-71
2022/03/28 12:11:36;;;;;;;19.85;12.80;;;10.30;99.90;;;;;;5055982;28;20049;-70
2022/03/28 12:14:01;;;;;;;16.98;12.55;;;10.30;99.90;;;;;;5056003;28;20535;-71
2022/03/28 12:16:27;;;;;;;15.43;11.65;;;10.20;99.90;;;;;;5052767;28;20045;-71
2022/03/28 12:18:58;;;;;;;14.70;11.75;;;10.10;99.90;;;;;;5050469;28;20068;-71
2022/03/28 12:21:26;;;;;;;16.67;12.40;;;10.10;99.90;;;;;;5054644;28;20507;-71
2022/03/28 12:23:52;;;;;;;14.18;11.90;;;10.10;99.90;;;;;;5055135;28;20045;-71
2022/03/28 12:26:18;;;;;;;16.88;11.60;;;10.20;99.90;;;;;;5049735;28;20065;-71
2022/03/28 12:28:46;;;;;;;15.00;11.48;;;10.30;99.90;;;;;;5051001;28;20052;-71
2022/03/28 12:31:12;;;;;;;15.32;12.63;;;10.40;99.90;;;;;;5049576;28;20041;-71
2022/03/28 12:33:40;;;;;;;15.18;11.88;;;10.60;99.90;;;;;;5055042;28;20051;-70
2022/03/28 12:36:06;;;;;;;15.02;12.38;;;10.70;99.90;;;;;;5046852;28;20500;-72
2022/03/28 12:38:40;;;;;;;16.02;12.68;;;10.80;99.90;;;;;;5049564;28;20045;-70
2022/03/28 12:41:11;;;;;;;14.60;11.63;;;10.90;99.90;;;;;;5054884;28;20109;-71
2022/03/28 12:43:38;;;;;;;17.02;12.35;;;11.10;99.90;;;;;;5051957;28;20460;-71
2022/03/28 12:46:13;;;;;;;13.90;11.95;;;11.10;99.90;;;;;;5051264;28;20076;-72
2022/03/28 12:48:40;;;;;;;18.65;13.52;;;11.10;99.90;;;;;;5056558;28;20163;-71